createdAt,value
2023-02-28T05:57:24.347Z,3
2023-02-28T06:00:18.699Z,3
2023-02-28T06:03:19.702Z,1.4
2023-02-28T06:06:18.905Z,2.3
2023-02-28T06:09:20.819Z,3.6
2023-02-28T06:12:17.901Z,4.9
2023-02-28T06:15:17.833Z,7.1
2023-02-28T06:18:17.833Z,9.7
2023-02-28T06:21:19.336Z,12.7
2023-02-28T06:24:18.317Z,16.3
2023-02-28T06:27:18.577Z,20.1
2023-02-28T06:30:18.791Z,24.1
2023-02-28T06:33:18.831Z,27.1
2023-02-28T06:36:18.001Z,32.4
2023-02-28T06:39:18.275Z,38.9
2023-02-28T06:42:18.285Z,43.2
2023-02-28T06:45:18.244Z,47.1
2023-02-28T06:48:17.958Z,50.9
2023-02-28T06:51:17.982Z,54.8
2023-02-28T06:54:17.920Z,60.9
2023-02-28T06:57:18.811Z,67.1
2023-02-28T07:00:20.474Z,72.5
2023-02-28T07:03:18.832Z,77
2023-02-28T07:06:23.498Z,80.8
2023-02-28T07:09:18.721Z,84.2
2023-02-28T07:12:18.668Z,87.1
2023-02-28T07:15:17.841Z,89.7
2023-02-28T07:18:18.814Z,91.6
2023-02-28T07:21:18.840Z,94.8
2023-02-28T07:24:18.677Z,99.2
2023-02-28T07:27:18.390Z,105.3
2023-02-28T07:30:18.380Z,113.1
2023-02-28T07:33:18.000Z,121.6
2023-02-28T07:36:17.601Z,130
2023-02-28T07:39:18.620Z,135.2
2023-02-28T07:42:18.523Z,141.9
2023-02-28T07:45:18.965Z,147.3
2023-02-28T07:48:17.586Z,151.8
2023-02-28T07:51:18.619Z,156.1
2023-02-28T07:54:18.280Z,160.4
2023-02-28T07:57:18.305Z,164.7
2023-02-28T08:00:18.585Z,167.3
2023-02-28T08:03:18.729Z,171
2023-02-28T08:06:18.717Z,174.5
2023-02-28T08:09:18.012Z,177.7
2023-02-28T08:12:18.872Z,180.9
2023-02-28T08:15:18.011Z,184.2
2023-02-28T08:18:18.883Z,186.7
2023-02-28T08:21:18.016Z,191.4
2023-02-28T08:24:24.189Z,195.9
2023-02-28T08:27:18.322Z,200.4
2023-02-28T08:30:18.251Z,204.6
2023-02-28T08:33:18.189Z,209.6
2023-02-28T08:36:18.036Z,214.7
2023-02-28T08:39:18.299Z,218.9
2023-02-28T08:42:18.155Z,220.8
2023-02-28T08:45:18.066Z,222.8
2023-02-28T08:48:19.625Z,224.4
2023-02-28T08:51:18.273Z,225.8
2023-02-28T08:54:18.126Z,227
2023-02-28T08:57:18.117Z,227.9
2023-02-28T09:00:19.114Z,228.6
2023-02-28T09:03:19.975Z,229.5
2023-02-28T09:06:18.380Z,230.1
2023-02-28T09:09:18.526Z,231
2023-02-28T09:12:18.810Z,231.9
2023-02-28T09:15:18.623Z,232.5
2023-02-28T09:18:18.551Z,233
2023-02-28T09:21:18.344Z,233.3
2023-02-28T09:24:18.332Z,233.3
2023-02-28T09:27:18.384Z,233.3
2023-02-28T09:30:18.045Z,233.4
2023-02-28T09:33:18.045Z,233.8
2023-02-28T09:36:18.516Z,234.1
2023-02-28T09:39:18.475Z,234.3
2023-02-28T09:42:18.398Z,234.6
2023-02-28T09:45:18.594Z,234.9
2023-02-28T09:48:18.964Z,235
2023-02-28T09:51:19.017Z,234.9
2023-02-28T09:54:17.822Z,234.6
2023-02-28T09:57:18.744Z,234
2023-02-28T10:00:19.512Z,233.2
2023-02-28T10:03:17.722Z,232.8
2023-02-28T10:06:18.217Z,232.8
2023-02-28T10:09:18.420Z,232.8
2023-02-28T10:12:18.662Z,232.7
2023-02-28T10:15:18.234Z,232.5
2023-02-28T10:18:18.405Z,232.8
2023-02-28T10:21:18.453Z,232.9
2023-02-28T10:24:18.262Z,232.8
2023-02-28T10:27:18.123Z,232.8
2023-02-28T10:30:18.089Z,233.4
2023-02-28T10:33:17.933Z,234.2
2023-02-28T10:36:17.929Z,234.1
2023-02-28T10:39:18.305Z,233.5
2023-02-28T10:42:30.356Z,232.9
2023-02-28T10:45:18.534Z,232.9
2023-02-28T10:48:18.699Z,232.9
2023-02-28T10:51:18.519Z,233
2023-02-28T10:54:18.489Z,233
2023-02-28T10:57:18.493Z,232.4
2023-02-28T11:00:18.643Z,230.8
2023-02-28T11:03:18.659Z,229.5
2023-02-28T11:06:18.590Z,228.5
2023-02-28T11:09:18.596Z,227.6
2023-02-28T11:12:18.776Z,226.4
2023-02-28T11:15:18.883Z,225.5
2023-02-28T11:18:19.257Z,224.3
2023-02-28T11:21:17.877Z,223.1
2023-02-28T11:24:18.855Z,221.9
2023-02-28T11:27:17.589Z,220.6
2023-02-28T11:30:18.848Z,219.5
2023-02-28T11:33:18.673Z,218.3
2023-02-28T11:36:20.237Z,217.6
2023-02-28T11:39:18.317Z,216.7
2023-02-28T11:42:18.575Z,215.9
2023-02-28T11:45:18.731Z,215.3
2023-02-28T11:48:19.038Z,215.4
2023-02-28T11:51:18.246Z,216
2023-02-28T11:54:17.848Z,216.5
2023-02-28T11:57:18.031Z,216.8
2023-02-28T12:00:18.074Z,217.4
2023-02-28T12:03:17.967Z,218.9
2023-02-28T12:06:18.289Z,220.5
2023-02-28T12:09:18.617Z,221.9
2023-02-28T12:12:18.554Z,222.5
2023-02-28T12:15:18.530Z,223.1
2023-02-28T12:18:18.537Z,223.4
2023-02-28T12:21:18.606Z,224.7
2023-02-28T12:24:18.396Z,227.7
2023-02-28T12:27:18.290Z,232.2
2023-02-28T12:30:18.599Z,239
2023-02-28T12:33:18.036Z,245
2023-02-28T12:36:18.199Z,255.3
2023-02-28T12:39:18.302Z,264.3
2023-02-28T12:42:18.342Z,271.6
2023-02-28T12:45:18.773Z,278.9
2023-02-28T12:48:18.661Z,287.8
2023-02-28T12:51:19.119Z,294.8
2023-02-28T12:54:18.147Z,306.8
2023-02-28T12:57:18.015Z,320
2023-02-28T13:00:17.985Z,334.9
2023-02-28T13:03:17.872Z,352.1
2023-02-28T13:06:18.777Z,371.9
2023-02-28T13:09:18.742Z,394
2023-02-28T13:12:18.037Z,410.2
2023-02-28T13:15:18.237Z,438.8
2023-02-28T13:18:19.699Z,488.2
2023-02-28T13:21:18.775Z,572.7
2023-02-28T13:24:18.760Z,695.3
2023-02-28T13:27:27.480Z,846.9
2023-02-28T13:30:18.414Z,1102.3
2023-02-28T13:33:18.165Z,2892.1
2023-02-28T13:36:18.371Z,4348.3
2023-02-28T13:39:18.578Z,6547.4
2023-02-28T13:42:17.969Z,7324.4
2023-02-28T13:45:17.906Z,7721
2023-02-28T13:48:18.099Z,7629.7
2023-02-28T13:51:18.421Z,5943.2
2023-02-28T13:54:18.260Z,4134.4
2023-02-28T13:57:18.361Z,3334.3
2023-02-28T14:00:18.446Z,3458.6
2023-02-28T14:03:18.532Z,3694.2
2023-02-28T14:06:17.765Z,3925.9
2023-02-28T14:09:18.169Z,4142
2023-02-28T14:12:18.215Z,5299
2023-02-28T14:15:18.273Z,5513.5
2023-02-28T14:18:18.460Z,5607
2023-02-28T14:21:18.472Z,4749.1
2023-02-28T14:24:18.151Z,4778.9
2023-02-28T14:27:18.143Z,4821.1
2023-02-28T14:30:18.514Z,4850
2023-02-28T14:33:18.778Z,4854
2023-02-28T14:36:18.313Z,4833.5
2023-02-28T14:39:18.717Z,4813
2023-02-28T14:42:18.763Z,4771.9
2023-02-28T14:45:18.499Z,4710.6
2023-02-28T14:48:17.975Z,4615.4
2023-02-28T14:51:18.217Z,4500.9
2023-02-28T14:54:18.192Z,4380.2
2023-02-28T14:57:18.293Z,4263
2023-02-28T15:00:20.061Z,4138.5
2023-02-28T15:03:18.536Z,4044.4
2023-02-28T15:06:18.860Z,3881.9
2023-02-28T15:09:18.088Z,3710.2
2023-02-28T15:12:17.841Z,3542.6
2023-02-28T15:15:17.965Z,3377.1
2023-02-28T15:18:17.849Z,3203.6
2023-02-28T15:21:19.237Z,3028
2023-02-28T15:24:18.302Z,2910.2
2023-02-28T15:27:18.455Z,2745.6
2023-02-28T15:30:18.700Z,2599.8
2023-02-28T15:33:18.694Z,2472.1
2023-02-28T15:36:18.545Z,2353.5
2023-02-28T15:39:18.460Z,2239.3
2023-02-28T15:42:18.531Z,2162.1
2023-02-28T15:45:18.825Z,2046.8
2023-02-28T15:48:17.882Z,1933.4
2023-02-28T15:51:18.099Z,1822.2
2023-02-28T15:54:18.173Z,1709.2
2023-02-28T15:57:18.601Z,1592.1
2023-02-28T16:00:17.758Z,1477.2
2023-02-28T16:03:19.155Z,1386.7
2023-02-28T16:06:18.463Z,1191
2023-02-28T16:09:18.589Z,900.5
2023-02-28T16:12:18.661Z,577.9
2023-02-28T16:15:18.509Z,310.5
2023-02-28T16:18:18.430Z,161.7
2023-02-28T16:21:18.679Z,114.4
2023-02-28T16:24:18.492Z,93.3
2023-02-28T16:27:19.068Z,85.5
2023-02-28T16:30:21.598Z,77.6
2023-02-28T16:33:18.966Z,69.8
2023-02-28T16:36:18.809Z,62
2023-02-28T16:39:19.250Z,54.2
2023-02-28T16:42:18.368Z,49.2
2023-02-28T16:45:18.364Z,41.9
2023-02-28T16:48:18.198Z,35.2
2023-02-28T16:51:18.241Z,29
2023-02-28T16:54:18.382Z,23.4
2023-02-28T16:57:18.516Z,18.4
2023-02-28T17:00:21.781Z,15.4
2023-02-28T17:03:30.813Z,11.5
2023-02-28T17:06:17.844Z,8.2
2023-02-28T17:09:18.348Z,5.7
2023-02-28T17:12:18.634Z,4
2023-02-28T17:15:18.432Z,2.5
2023-02-28T17:18:18.370Z,1.5
2023-02-28T17:21:18.576Z,1.5
2023-02-28T17:24:28.948Z,1.5
2023-02-28T17:27:20.402Z,1.5
2023-02-28T17:30:18.663Z,1.5
2023-02-28T17:33:17.904Z,1.5
2023-02-28T17:36:17.918Z,1.5
2023-02-28T17:39:18.967Z,1.5
2023-02-28T17:42:18.189Z,1.5
2023-02-28T17:45:18.772Z,1.5
2023-02-28T17:48:17.854Z,1.5
2023-02-28T17:51:18.892Z,1.5
2023-02-28T17:54:19.345Z,1.5
2023-02-28T17:57:18.700Z,1.5
2023-02-28T18:00:27.497Z,1.5
2023-02-28T18:03:18.158Z,1.5
2023-02-28T18:06:18.876Z,1.5
2023-02-28T18:09:17.982Z,1.5
2023-02-28T18:12:18.163Z,1.5
2023-02-28T18:15:17.940Z,1.5
2023-02-28T20:33:18.416Z,4.5
2023-02-28T20:36:19.219Z,4.5
2023-02-28T20:39:18.630Z,4.5
2023-02-28T20:42:18.737Z,4.5
2023-02-28T20:45:17.929Z,4.5
2023-02-28T20:48:18.091Z,4.5
2023-02-28T20:51:18.169Z,4.5
2023-02-28T20:54:18.228Z,4.5
2023-02-28T20:57:18.720Z,4.5
2023-02-28T21:00:19.106Z,4.5
2023-02-28T21:03:18.506Z,4.5
2023-02-28T21:06:18.413Z,4.5
2023-02-28T21:09:18.726Z,4.5
2023-02-28T21:12:18.247Z,4.5
2023-02-28T21:15:18.637Z,4.5
2023-02-28T21:18:18.840Z,4.5
2023-02-28T21:21:17.990Z,4.5
2023-02-28T21:24:17.810Z,4.5
2023-02-28T21:27:17.943Z,4.5
2023-02-28T21:30:17.786Z,4.5
